createdAt,value
2023-06-02T00:01:34.308Z,97036.88
2023-06-02T00:04:04.800Z,97005.63
2023-06-02T00:06:35.433Z,97043.31
2023-06-02T00:09:06.132Z,97026.06
2023-06-02T00:11:36.449Z,97039.00
2023-06-02T00:14:05.168Z,97046.78
2023-06-02T00:16:35.213Z,97039.19
2023-06-02T00:19:01.840Z,97039.53
2023-06-02T00:21:29.022Z,97046.44
2023-06-02T00:23:55.827Z,97042.44
2023-06-02T00:26:26.482Z,97036.97
2023-06-02T00:28:56.919Z,97039.00
2023-06-02T00:31:24.076Z,97043.78
2023-06-02T00:33:50.879Z,97045.44
2023-06-02T00:36:17.607Z,97041.50
2023-06-02T00:38:44.331Z,97024.91
2023-06-02T00:41:11.340Z,97048.69
2023-06-02T00:43:38.096Z,97042.53
2023-06-02T00:46:04.883Z,97050.03
2023-06-02T00:48:31.740Z,97048.50
2023-06-02T00:50:58.492Z,97046.16
2023-06-02T00:53:25.427Z,97042.97
2023-06-02T00:55:54.204Z,97037.94
2023-06-02T00:58:21.189Z,97039.72
2023-06-02T01:00:48.366Z,97044.03
2023-06-02T01:03:16.017Z,97045.81
2023-06-02T01:05:48.150Z,97040.69
2023-06-02T01:08:17.337Z,97037.59
2023-06-02T01:10:44.775Z,97019.19
2023-06-02T01:13:12.341Z,97041.81
2023-06-02T01:15:39.092Z,97038.31
2023-06-02T01:18:10.872Z,97043.69
2023-06-02T01:20:45.541Z,97034.94
2023-06-02T01:23:17.955Z,97038.66
2023-06-02T01:25:45.550Z,97037.75
2023-06-02T01:28:13.578Z,97034.13
2023-06-02T01:30:40.680Z,97038.00
2023-06-02T01:33:25.789Z,97037.81
2023-06-02T01:36:00.226Z,97019.22
2023-06-02T01:38:29.837Z,97037.63
2023-06-02T01:41:04.430Z,97039.03
2023-06-02T01:43:33.772Z,97036.53
2023-06-02T01:46:02.851Z,97034.94
2023-06-02T01:48:30.410Z,97013.94
2023-06-02T01:50:57.213Z,97037.22
2023-06-02T01:53:27.984Z,97041.78
2023-06-02T01:55:55.804Z,97039.97
2023-06-02T01:58:22.933Z,97039.63
2023-06-02T02:00:49.653Z,97032.66
2023-06-02T02:03:16.520Z,97034.78
2023-06-02T02:05:44.571Z,97029.25
2023-06-02T02:08:13.402Z,97032.88
2023-06-02T02:10:40.481Z,97036.75
2023-06-02T02:13:07.218Z,97043.78
2023-06-02T02:15:34.262Z,97045.03
2023-06-02T02:18:01.056Z,97041.84
2023-06-02T02:20:28.211Z,97043.69
2023-06-02T02:22:55.400Z,97046.69
2023-06-02T02:25:22.336Z,97043.94
2023-06-02T02:28:04.752Z,97036.63
2023-06-02T02:30:31.733Z,97037.00
2023-06-02T02:32:58.440Z,97039.84
2023-06-02T02:35:25.205Z,97042.25
2023-06-02T02:37:51.904Z,97036.50
2023-06-02T02:40:18.724Z,97037.50
2023-06-02T02:42:45.667Z,97036.94
2023-06-02T02:45:12.562Z,97027.75
2023-06-02T02:47:39.401Z,97014.53
2023-06-02T02:50:06.600Z,97031.03
2023-06-02T02:52:33.586Z,97037.63
2023-06-02T02:55:00.922Z,97041.50
2023-06-02T02:57:27.674Z,97025.97
2023-06-02T02:59:54.439Z,97044.66
2023-06-02T03:02:21.131Z,97048.06
2023-06-02T03:04:48.074Z,97044.84
2023-06-02T03:07:15.152Z,97052.72
2023-06-02T03:09:42.338Z,97054.13
2023-06-02T03:12:09.433Z,97052.75
2023-06-02T03:14:36.714Z,97051.03
2023-06-02T03:17:03.997Z,97057.03
2023-06-02T03:19:31.012Z,97062.94
2023-06-02T03:21:58.128Z,97058.72
2023-06-02T03:24:25.530Z,97068.41
2023-06-02T03:26:53.792Z,97071.94
2023-06-02T03:29:21.241Z,97073.25
2023-06-02T03:31:48.800Z,97067.19
2023-06-02T03:34:15.689Z,97081.50
2023-06-02T03:36:42.489Z,97082.19
2023-06-02T03:39:09.421Z,97074.69
2023-06-02T03:41:37.632Z,97051.66
2023-06-02T03:44:05.026Z,97083.97
2023-06-02T03:46:32.158Z,97082.56
2023-06-02T03:48:59.178Z,97078.78
2023-06-02T03:51:26.073Z,97083.69
2023-06-02T03:53:52.824Z,97091.09
2023-06-02T03:56:21.354Z,97094.66
2023-06-02T03:58:49.245Z,97086.38
2023-06-02T04:01:19.505Z,97094.91
2023-06-02T04:03:46.596Z,97095.19
2023-06-02T04:06:13.946Z,97085.19
2023-06-02T04:08:40.977Z,97093.53
2023-06-02T04:11:08.260Z,97108.94
2023-06-02T04:13:35.282Z,97097.28
2023-06-02T04:16:02.531Z,97095.03
2023-06-02T04:18:31.550Z,97095.84
2023-06-02T04:21:05.040Z,97087.97
2023-06-02T04:23:31.768Z,97099.03
2023-06-02T04:25:58.584Z,97102.53
2023-06-02T04:28:25.489Z,97100.84
2023-06-02T04:30:56.762Z,97102.72
2023-06-02T04:33:24.739Z,97094.78
2023-06-02T04:35:52.000Z,97103.03
2023-06-02T04:38:19.431Z,97100.59
2023-06-02T04:40:47.051Z,97090.69
2023-06-02T04:43:13.827Z,97096.00
2023-06-02T04:45:44.854Z,97099.88
2023-06-02T04:48:12.654Z,97088.34
2023-06-02T04:50:39.862Z,97080.47
2023-06-02T04:53:07.161Z,97096.59
2023-06-02T04:55:34.051Z,97096.19
2023-06-02T04:58:00.871Z,97099.75
2023-06-02T05:00:28.868Z,97092.91
2023-06-02T05:02:56.676Z,97103.81
2023-06-02T05:05:23.707Z,97101.09
2023-06-02T05:07:50.494Z,97103.31
2023-06-02T05:10:17.164Z,97100.94
2023-06-02T05:12:44.833Z,97100.06
2023-06-02T05:15:11.756Z,97117.00
2023-06-02T05:17:38.657Z,97110.56
2023-06-02T05:20:06.160Z,97109.94
2023-06-02T05:22:32.932Z,97118.16
2023-06-02T05:25:00.256Z,97116.13
2023-06-02T05:27:27.045Z,97109.63
2023-06-02T05:29:53.752Z,97119.06
2023-06-02T05:32:23.955Z,97127.22
2023-06-02T05:34:50.923Z,97130.72
2023-06-02T05:37:17.663Z,97127.66
2023-06-02T05:39:44.671Z,97123.00
2023-06-02T05:42:11.507Z,97115.78
2023-06-02T05:44:38.225Z,97122.25
2023-06-02T05:47:06.368Z,97127.84
2023-06-02T05:49:33.158Z,97123.22
2023-06-02T05:52:00.829Z,97134.72
2023-06-02T05:54:27.698Z,97133.88
2023-06-02T05:56:55.682Z,97141.44
2023-06-02T05:59:22.427Z,97138.09
2023-06-02T06:01:49.153Z,97136.31
2023-06-02T06:04:16.110Z,97147.81
2023-06-02T06:06:42.781Z,97135.19
2023-06-02T06:09:09.921Z,97139.94
2023-06-02T06:11:37.521Z,97132.38
2023-06-02T06:14:08.956Z,97134.59
2023-06-02T06:16:35.900Z,97129.72
2023-06-02T06:19:04.296Z,97136.81
2023-06-02T06:21:31.083Z,97134.06
2023-06-02T06:23:57.876Z,97138.78
2023-06-02T06:26:24.675Z,97119.69
2023-06-02T06:28:51.314Z,97133.81
2023-06-02T06:31:18.211Z,97142.91
2023-06-02T06:33:44.888Z,97148.44
2023-06-02T06:36:12.395Z,97154.41
2023-06-02T06:38:39.509Z,97148.84
2023-06-02T06:41:06.356Z,97146.16
2023-06-02T06:43:33.066Z,97157.13
2023-06-02T06:46:03.191Z,97148.66
2023-06-02T06:48:30.404Z,97158.13
2023-06-02T06:50:57.297Z,97153.13
2023-06-02T06:53:24.010Z,97163.84
2023-06-02T06:55:51.124Z,97161.69
2023-06-02T06:58:17.801Z,97156.06
2023-06-02T07:00:44.660Z,97157.78
2023-06-02T07:03:11.445Z,97159.94
2023-06-02T07:05:38.260Z,97146.78
2023-06-02T07:08:05.036Z,97173.72
2023-06-02T07:10:31.726Z,97160.13
2023-06-02T07:12:58.534Z,97166.06
2023-06-02T07:15:25.369Z,97163.53
2023-06-02T07:17:52.328Z,97160.94
2023-06-02T07:20:19.092Z,97160.94
2023-06-02T07:22:45.954Z,97166.47
2023-06-02T07:25:13.028Z,97174.81
2023-06-02T07:27:39.987Z,97173.59
2023-06-02T07:30:08.740Z,97166.75
2023-06-02T07:32:35.521Z,97171.13
2023-06-02T07:35:02.263Z,97163.53
2023-06-02T07:37:29.959Z,97174.97
2023-06-02T07:39:56.640Z,97171.63
2023-06-02T07:42:23.736Z,97183.81
2023-06-02T07:44:50.671Z,97172.47
2023-06-02T07:47:17.425Z,97181.69
2023-06-02T07:49:45.007Z,97178.53
2023-06-02T07:52:12.136Z,97178.34
2023-06-02T07:54:38.886Z,97166.66
2023-06-02T07:57:07.079Z,97168.50
2023-06-02T07:59:33.723Z,97184.06
2023-06-02T08:02:00.564Z,97173.16
2023-06-02T08:04:28.702Z,97178.19
2023-06-02T08:06:58.965Z,97171.28
2023-06-02T08:09:25.751Z,97168.13
2023-06-02T08:11:53.154Z,97162.03
2023-06-02T08:14:25.791Z,97188.00
2023-06-02T08:16:58.662Z,97182.22
2023-06-02T08:19:27.369Z,97175.59
2023-06-02T08:21:54.363Z,97181.09
2023-06-02T08:24:26.587Z,97184.25
2023-06-02T08:26:56.021Z,97191.09
2023-06-02T08:29:23.471Z,97186.44
2023-06-02T08:31:50.562Z,97197.47
2023-06-02T08:34:21.815Z,97187.88
2023-06-02T08:36:51.518Z,97192.81
2023-06-02T08:39:19.049Z,97193.19
2023-06-02T08:41:47.538Z,97182.75
2023-06-02T08:44:15.163Z,97189.66
2023-06-02T08:46:42.932Z,97194.13
2023-06-02T08:49:09.992Z,97175.09
2023-06-02T08:51:42.137Z,97183.97
2023-06-02T08:54:12.125Z,97187.63
2023-06-02T08:56:39.038Z,97191.09
2023-06-02T08:59:05.943Z,97196.50
2023-06-02T09:01:32.737Z,97185.44
2023-06-02T09:03:59.677Z,97185.41
2023-06-02T09:06:28.375Z,97180.06
2023-06-02T09:09:03.438Z,97179.94
2023-06-02T09:11:31.881Z,97192.22
2023-06-02T09:14:00.619Z,97189.97
2023-06-02T09:16:39.331Z,97174.69
2023-06-02T09:19:06.381Z,97200.78
2023-06-02T09:21:34.657Z,97187.78
2023-06-02T09:24:13.442Z,97198.59
2023-06-02T09:26:48.921Z,97210.81
2023-06-02T09:29:16.359Z,97202.47
2023-06-02T09:31:50.050Z,97205.72
2023-06-02T09:34:18.721Z,97201.16
2023-06-02T09:36:49.027Z,97199.38
2023-06-02T09:39:15.970Z,97189.47
2023-06-02T09:41:42.996Z,97197.28
2023-06-02T09:44:16.672Z,97210.03
2023-06-02T09:46:46.316Z,97203.22
2023-06-02T09:49:13.426Z,97202.22
2023-06-02T09:51:40.609Z,97202.44
2023-06-02T09:54:08.794Z,97193.38
2023-06-02T09:56:37.911Z,97205.50
2023-06-02T09:59:06.638Z,97203.44
2023-06-02T10:01:38.097Z,97199.97
2023-06-02T10:04:07.247Z,97178.94
2023-06-02T10:07:07.786Z,97195.91
2023-06-02T10:09:49.542Z,97204.81
2023-06-02T10:12:50.952Z,97197.72
2023-06-02T10:15:48.996Z,97205.31
2023-06-02T10:18:44.542Z,97199.66
2023-06-02T10:21:39.037Z,97192.38
2023-06-02T10:24:20.020Z,97205.59
2023-06-02T10:27:05.325Z,97198.25
2023-06-02T10:29:35.228Z,97207.47
2023-06-02T10:32:34.854Z,97211.22
2023-06-02T10:35:02.165Z,97217.69
2023-06-02T10:37:29.043Z,97208.59
2023-06-02T10:39:59.172Z,97218.84
2023-06-02T10:42:27.875Z,97220.13
2023-06-02T10:45:24.333Z,97220.53
2023-06-02T10:47:51.447Z,97231.56
2023-06-02T10:50:24.559Z,97213.00
2023-06-02T10:53:00.590Z,97220.13
2023-06-02T10:55:31.836Z,97206.31
2023-06-02T10:58:06.409Z,97208.66
2023-06-02T11:00:33.708Z,97212.59
2023-06-02T11:03:01.395Z,97218.13
2023-06-02T11:05:34.822Z,97210.56
2023-06-02T11:08:14.332Z,97218.88
2023-06-02T11:10:58.122Z,97213.34
2023-06-02T11:13:26.601Z,97221.28
2023-06-02T11:15:53.477Z,97222.50
2023-06-02T11:18:23.045Z,97222.50
2023-06-02T11:20:55.175Z,97216.94
2023-06-02T11:23:22.480Z,97221.28
2023-06-02T11:25:50.169Z,97226.75
2023-06-02T11:28:22.812Z,97215.63
2023-06-02T11:31:15.619Z,97237.31
2023-06-02T11:33:44.312Z,97232.25
2023-06-02T11:36:13.764Z,97216.81
2023-06-02T11:38:41.264Z,97232.66
2023-06-02T11:41:12.465Z,97244.16
2023-06-02T11:43:40.184Z,97241.78
2023-06-02T11:46:12.036Z,97235.75
2023-06-02T11:48:40.058Z,97233.56
2023-06-02T11:51:08.142Z,97231.94
2023-06-02T11:53:36.196Z,97227.56
2023-06-02T11:56:03.236Z,97230.03
2023-06-02T11:58:31.329Z,97243.69
2023-06-02T12:01:09.676Z,97236.50
2023-06-02T12:03:38.140Z,97237.38
2023-06-02T12:06:16.145Z,97239.56
2023-06-02T12:08:43.218Z,97234.94
2023-06-02T12:11:22.162Z,97241.63
2023-06-02T12:14:04.026Z,97249.50
2023-06-02T12:16:31.239Z,97233.66
2023-06-02T12:19:17.511Z,97230.97
2023-06-02T12:21:47.476Z,97246.50
2023-06-02T12:24:31.098Z,97249.66
2023-06-02T12:26:58.080Z,97250.03
2023-06-02T12:29:25.701Z,97242.22
2023-06-02T12:32:08.516Z,97247.34
2023-06-02T12:34:36.160Z,97243.31
2023-06-02T12:37:04.257Z,97234.75
2023-06-02T12:39:31.860Z,97234.13
2023-06-02T12:41:58.771Z,97239.53
2023-06-02T12:44:29.013Z,97244.47
2023-06-02T12:46:56.292Z,97227.72
2023-06-02T12:49:23.126Z,97242.47
2023-06-02T12:51:49.854Z,97246.31
2023-06-02T12:54:16.584Z,97223.78
2023-06-02T12:56:44.756Z,97256.41
2023-06-02T12:59:14.049Z,97244.06
2023-06-02T13:01:41.602Z,97257.97
2023-06-02T13:04:09.001Z,97263.06
2023-06-02T13:06:38.431Z,97259.09
2023-06-02T13:09:06.457Z,97270.19
2023-06-02T13:11:33.382Z,97265.09
2023-06-02T13:14:00.107Z,97242.22
2023-06-02T13:16:27.189Z,97249.31
2023-06-02T13:18:54.442Z,97269.41
2023-06-02T13:21:21.406Z,97270.19
2023-06-02T13:23:55.129Z,97272.66
2023-06-02T13:26:22.374Z,97286.84
2023-06-02T13:28:49.387Z,97273.03
2023-06-02T13:31:16.443Z,97275.41
2023-06-02T13:33:43.543Z,97277.38
2023-06-02T13:36:10.297Z,97286.84
2023-06-02T13:38:37.168Z,97290.78
2023-06-02T13:41:04.247Z,97299.34
2023-06-02T13:43:31.109Z,97299.25
2023-06-02T13:45:57.908Z,97293.72
2023-06-02T13:48:24.773Z,97303.22
2023-06-02T13:50:51.474Z,97289.88
2023-06-02T13:53:18.348Z,97296.63
2023-06-02T13:55:45.079Z,97287.59
2023-06-02T13:58:13.800Z,97299.78
2023-06-02T14:00:42.566Z,97312.34
2023-06-02T14:03:09.591Z,97304.03
2023-06-02T14:05:36.546Z,97304.81
2023-06-02T14:08:03.595Z,97301.28
2023-06-02T14:10:30.342Z,97314.38
2023-06-02T14:12:57.207Z,97310.81
2023-06-02T14:15:24.060Z,97314.41
2023-06-02T14:17:51.640Z,97323.84
2023-06-02T14:20:20.138Z,97320.59
2023-06-02T14:22:47.014Z,97327.09
2023-06-02T14:25:13.764Z,97328.69
2023-06-02T14:27:40.938Z,97335.03
2023-06-02T14:30:08.407Z,97341.66
2023-06-02T14:32:35.214Z,97347.47
2023-06-02T14:35:02.035Z,97343.97
2023-06-02T14:37:28.774Z,97345.66
2023-06-02T14:39:56.794Z,97355.50
2023-06-02T14:42:23.772Z,97358.34
2023-06-02T14:44:50.507Z,97354.09
2023-06-02T14:47:17.465Z,97361.47
2023-06-02T14:49:44.230Z,97367.28
2023-06-02T14:52:10.959Z,97364.63
2023-06-02T14:54:39.826Z,97368.69
2023-06-02T14:57:06.934Z,97373.06
2023-06-02T14:59:33.735Z,97385.84
2023-06-02T15:02:00.409Z,97377.28
2023-06-02T15:04:27.390Z,97374.78
2023-06-02T15:06:54.113Z,97371.22
2023-06-02T15:09:21.161Z,97375.38
2023-06-02T15:11:47.981Z,97393.63
2023-06-02T15:14:14.757Z,97383.13
2023-06-02T15:16:41.524Z,97385.06
2023-06-02T15:19:09.752Z,97391.56
2023-06-02T15:21:37.355Z,97379.44
2023-06-02T15:24:04.668Z,97392.59
2023-06-02T15:26:31.405Z,97392.47
2023-06-02T15:28:58.235Z,97392.75
2023-06-02T15:31:25.053Z,97385.31
2023-06-02T15:33:51.910Z,97391.09
2023-06-02T15:36:20.601Z,97385.63
2023-06-02T15:38:47.379Z,97395.56
2023-06-02T15:41:14.058Z,97395.06
2023-06-02T15:43:42.390Z,97394.00
2023-06-02T15:46:09.219Z,97392.41
2023-06-02T15:48:38.288Z,97394.00
2023-06-02T15:51:06.107Z,97388.13
2023-06-02T15:53:32.867Z,97398.75
2023-06-02T15:55:59.668Z,97393.56
2023-06-02T15:58:27.346Z,97390.84
2023-06-02T16:00:54.154Z,97405.75
2023-06-02T16:03:21.108Z,97403.00
2023-06-02T16:05:47.882Z,97405.22
2023-06-02T16:08:14.722Z,97406.25
2023-06-02T16:10:41.737Z,97405.31
2023-06-02T16:13:08.404Z,97413.31
2023-06-02T16:15:35.397Z,97415.41
2023-06-02T16:18:02.207Z,97422.59
2023-06-02T16:20:29.156Z,97417.22
2023-06-02T16:22:55.848Z,97425.91
2023-06-02T16:25:24.963Z,97420.84
2023-06-02T16:27:52.494Z,97414.34
2023-06-02T16:30:19.287Z,97431.59
2023-06-02T16:32:46.371Z,97438.56
2023-06-02T16:35:13.283Z,97449.16
2023-06-02T16:37:40.010Z,97445.28
2023-06-02T16:40:07.547Z,97458.00
2023-06-02T16:42:35.751Z,97456.78
2023-06-02T16:45:02.648Z,97464.38
2023-06-02T16:47:29.514Z,97461.84
2023-06-02T16:49:56.309Z,97473.25
2023-06-02T16:52:23.117Z,97476.63
2023-06-02T16:54:49.798Z,97474.69
2023-06-02T16:57:16.621Z,97489.81
2023-06-02T16:59:43.407Z,97485.03
2023-06-02T17:02:10.543Z,97483.38
2023-06-02T17:04:37.289Z,97501.75
2023-06-02T17:07:06.136Z,97499.44
2023-06-02T17:09:32.942Z,97505.13
2023-06-02T17:11:59.651Z,97504.66
2023-06-02T17:14:26.416Z,97511.19
2023-06-02T17:16:53.126Z,97519.06
2023-06-02T17:19:20.928Z,97511.19
2023-06-02T17:21:48.999Z,97525.91
2023-06-02T17:24:16.276Z,97512.94
2023-06-02T17:26:44.021Z,97526.94
2023-06-02T17:29:11.138Z,97530.19
2023-06-02T17:31:37.898Z,97541.31
2023-06-02T17:34:04.640Z,97546.88
2023-06-02T17:36:31.475Z,97538.31
2023-06-02T17:38:58.606Z,97545.16
2023-06-02T17:41:25.390Z,97541.56
2023-06-02T17:43:52.822Z,97552.47
2023-06-02T17:46:19.940Z,97544.94
2023-06-02T17:48:46.936Z,97527.97
2023-06-02T17:51:13.806Z,97537.41
2023-06-02T17:53:43.435Z,97542.66
2023-06-02T17:56:11.284Z,97544.75
2023-06-02T17:58:38.176Z,97543.16
2023-06-02T18:01:05.598Z,97536.31
2023-06-02T18:03:33.873Z,97544.53
2023-06-02T18:06:00.753Z,97550.06
2023-06-02T18:08:27.600Z,97571.47
2023-06-02T18:10:54.390Z,97570.44
2023-06-02T18:13:21.670Z,97565.56
2023-06-02T18:15:48.441Z,97574.31
2023-06-02T18:18:15.348Z,97575.78
2023-06-02T18:20:42.366Z,97576.16
2023-06-02T18:23:09.776Z,97575.44
2023-06-02T18:25:36.556Z,97586.06
2023-06-02T18:28:03.252Z,97590.38
2023-06-02T18:30:31.538Z,97584.56
2023-06-02T18:32:58.411Z,97591.72
2023-06-02T18:35:25.502Z,97590.03
2023-06-02T18:37:52.317Z,97595.41
2023-06-02T18:40:19.193Z,97606.44
2023-06-02T18:42:46.049Z,97608.25
2023-06-02T18:45:12.856Z,97614.53
2023-06-02T18:47:39.708Z,97613.84
2023-06-02T18:50:07.769Z,97601.19
2023-06-02T18:52:35.720Z,97605.06
2023-06-02T18:55:02.834Z,97611.09
2023-06-02T18:57:29.558Z,97628.44
2023-06-02T18:59:56.354Z,97619.41
2023-06-02T19:02:23.247Z,97615.44
2023-06-02T19:04:52.785Z,97632.06
2023-06-02T19:07:20.629Z,97629.22
2023-06-02T19:09:47.318Z,97640.94
2023-06-02T19:12:14.287Z,97634.47
2023-06-02T19:14:41.286Z,97631.16
2023-06-02T19:17:09.675Z,97645.31
2023-06-02T19:19:36.528Z,97652.72
2023-06-02T19:22:03.333Z,97647.25
2023-06-02T19:24:30.085Z,97649.28
2023-06-02T19:26:56.874Z,97636.06
2023-06-02T19:29:24.775Z,97658.31
2023-06-02T19:31:51.618Z,97653.16
2023-06-02T19:34:20.155Z,97661.72
2023-06-02T19:36:46.957Z,97658.06
2023-06-02T19:39:13.676Z,97662.59
2023-06-02T19:41:40.603Z,97668.88
2023-06-02T19:44:09.834Z,97666.16
2023-06-02T19:46:39.166Z,97664.66
2023-06-02T19:49:08.096Z,97667.66
2023-06-02T19:51:34.908Z,97673.13
2023-06-02T19:54:02.046Z,97666.81
2023-06-02T19:56:35.221Z,97662.47
2023-06-02T19:59:02.001Z,97680.94
2023-06-02T20:01:28.817Z,97678.28
2023-06-02T20:03:55.865Z,97681.34
2023-06-02T20:06:22.580Z,97678.50
2023-06-02T20:08:49.637Z,97683.19
2023-06-02T20:11:16.378Z,97689.22
2023-06-02T20:13:43.141Z,97692.53
2023-06-02T20:16:09.915Z,97693.69
2023-06-02T20:18:38.494Z,97698.78
2023-06-02T20:21:06.306Z,97702.97
2023-06-02T20:23:33.540Z,97690.44
2023-06-02T20:26:00.978Z,97711.19
2023-06-02T20:28:27.805Z,97700.38
2023-06-02T20:30:54.603Z,97701.69
2023-06-02T20:33:21.615Z,97705.81
2023-06-02T20:35:48.436Z,97710.22
2023-06-02T20:38:15.296Z,97710.53
2023-06-02T20:40:42.095Z,97704.69
2023-06-02T20:43:08.988Z,97710.44
2023-06-02T20:45:35.913Z,97708.63
2023-06-02T20:48:05.063Z,97708.97
2023-06-02T20:50:31.764Z,97713.00
2023-06-02T20:52:58.632Z,97705.81
2023-06-02T20:55:25.394Z,97717.41
2023-06-02T20:57:52.075Z,97710.81
2023-06-02T21:00:19.305Z,97712.44
2023-06-02T21:02:46.285Z,97715.50
2023-06-02T21:05:13.085Z,97716.81
2023-06-02T21:07:39.956Z,97724.13
2023-06-02T21:10:07.122Z,97720.63
2023-06-02T21:12:33.911Z,97717.00
2023-06-02T21:15:02.900Z,97723.78
2023-06-02T21:17:29.666Z,97720.91
2023-06-02T21:19:56.364Z,97732.00
2023-06-02T21:22:23.154Z,97734.25
2023-06-02T21:24:50.985Z,97730.91
2023-06-02T21:27:17.829Z,97731.25
2023-06-02T21:29:44.708Z,97728.81
2023-06-02T21:32:11.602Z,97731.88
2023-06-02T21:34:38.546Z,97730.44
2023-06-02T21:37:05.970Z,97726.94
2023-06-02T21:39:32.951Z,97726.47
2023-06-02T21:42:00.009Z,97726.59
2023-06-02T21:44:27.019Z,97714.47
2023-06-02T21:46:53.798Z,97722.16
2023-06-02T21:49:20.742Z,97726.34
2023-06-02T21:51:47.495Z,97727.66
2023-06-02T21:54:14.249Z,97727.19
2023-06-02T21:56:41.239Z,97717.13
2023-06-02T21:59:08.067Z,97709.59
2023-06-02T22:01:34.905Z,97719.03
2023-06-02T22:04:01.971Z,97712.78
2023-06-02T22:06:30.028Z,97722.56
2023-06-02T22:08:57.109Z,97712.28
2023-06-02T22:11:27.138Z,97714.53
2023-06-02T22:13:53.875Z,97715.66
2023-06-02T22:16:21.201Z,97726.06
2023-06-02T22:18:48.180Z,97722.84
2023-06-02T22:21:16.379Z,97710.53
2023-06-02T22:23:44.766Z,97730.72
2023-06-02T22:26:11.853Z,97723.34
2023-06-02T22:28:38.621Z,97718.41
2023-06-02T22:31:05.572Z,97714.06
2023-06-02T22:33:32.673Z,97719.84
2023-06-02T22:35:59.604Z,97720.47
2023-06-02T22:38:26.362Z,97724.81
2023-06-02T22:40:53.193Z,97724.81
2023-06-02T22:43:19.926Z,97733.75
2023-06-02T22:45:46.888Z,97725.44
2023-06-02T22:48:13.923Z,97735.03
2023-06-02T22:50:40.660Z,97736.75
2023-06-02T22:53:07.462Z,97736.94
2023-06-02T22:55:34.244Z,97742.81
2023-06-02T22:58:00.939Z,97740.59
2023-06-02T23:00:27.769Z,97736.94
2023-06-02T23:02:54.934Z,97734.63
2023-06-02T23:05:21.692Z,97732.78
2023-06-02T23:07:48.383Z,97739.59
2023-06-02T23:10:16.356Z,97743.75
2023-06-02T23:12:44.551Z,97751.41
2023-06-02T23:15:11.772Z,97751.34
2023-06-02T23:17:38.640Z,97757.56
2023-06-02T23:20:09.521Z,97755.56
2023-06-02T23:22:36.474Z,97748.38
2023-06-02T23:25:03.898Z,97760.88
2023-06-02T23:27:31.629Z,97765.66
2023-06-02T23:29:58.949Z,97779.63
2023-06-02T23:32:26.249Z,97774.81
2023-06-02T23:34:55.195Z,97772.94
2023-06-02T23:37:25.844Z,97781.47
2023-06-02T23:39:53.675Z,97774.97
2023-06-02T23:42:20.348Z,97787.72
2023-06-02T23:44:47.136Z,97782.50
2023-06-02T23:47:18.200Z,97785.13
2023-06-02T23:49:48.716Z,97795.03
2023-06-02T23:52:16.349Z,97785.38
2023-06-02T23:54:43.619Z,97798.34
2023-06-02T23:57:10.461Z,97796.00
2023-06-02T23:59:37.300Z,97803.03
